sensor_id;sensor_type;location;lat;lon;timestamp;P1;durP1;ratioP1;P2;durP2;ratioP2
70838;SDS011;58464;52.298;4.852;2023-03-01T00:01:28;14.90;;;9.82;;
70838;SDS011;58464;52.298;4.852;2023-03-01T00:03:54;16.48;;;9.52;;
70838;SDS011;58464;52.298;4.852;2023-03-01T00:06:19;13.98;;;9.13;;
70838;SDS011;58464;52.298;4.852;2023-03-01T00:08:45;14.77;;;9.45;;
70838;SDS011;58464;52.298;4.852;2023-03-01T00:13:39;17.10;;;8.90;;
70838;SDS011;58464;52.298;4.852;2023-03-01T00:16:11;18.05;;;10.45;;
70838;SDS011;58464;52.298;4.852;2023-03-01T00:18:37;19.60;;;10.90;;
70838;SDS011;58464;52.298;4.852;2023-03-01T00:21:04;19.13;;;12.00;;
70838;SDS011;58464;52.298;4.852;2023-03-01T00:23:30;21.45;;;11.48;;
70838;SDS011;58464;52.298;4.852;2023-03-01T00:25:55;18.08;;;11.05;;
70838;SDS011;58464;52.298;4.852;2023-03-01T00:28:20;21.52;;;11.23;;
70838;SDS011;58464;52.298;4.852;2023-03-01T00:30:46;18.08;;;11.15;;
70838;SDS011;58464;52.298;4.852;2023-03-01T00:33:11;18.20;;;10.18;;
70838;SDS011;58464;52.298;4.852;2023-03-01T00:35:37;19.60;;;9.97;;
70838;SDS011;58464;52.298;4.852;2023-03-01T00:38:02;18.45;;;11.35;;
70838;SDS011;58464;52.298;4.852;2023-03-01T00:40:28;20.08;;;11.70;;
70838;SDS011;58464;52.298;4.852;2023-03-01T00:42:54;22.67;;;10.70;;
70838;SDS011;58464;52.298;4.852;2023-03-01T00:45:20;19.20;;;11.32;;
70838;SDS011;58464;52.298;4.852;2023-03-01T00:47:45;16.40;;;10.70;;
70838;SDS011;58464;52.298;4.852;2023-03-01T00:50:10;18.92;;;11.27;;
70838;SDS011;58464;52.298;4.852;2023-03-01T00:52:36;19.00;;;11.30;;
70838;SDS011;58464;52.298;4.852;2023-03-01T00:55:02;18.35;;;11.13;;
70838;SDS011;58464;52.298;4.852;2023-03-01T00:57:27;20.63;;;10.30;;
70838;SDS011;58464;52.298;4.852;2023-03-01T00:59:53;18.52;;;10.38;;
70838;SDS011;58464;52.298;4.852;2023-03-01T01:02:18;21.70;;;11.10;;
70838;SDS011;58464;52.298;4.852;2023-03-01T01:04:44;19.35;;;10.95;;
70838;SDS011;58464;52.298;4.852;2023-03-01T01:07:09;17.23;;;10.73;;
70838;SDS011;58464;52.298;4.852;2023-03-01T01:09:34;19.52;;;11.50;;
70838;SDS011;58464;52.298;4.852;2023-03-01T01:12:00;14.15;;;8.93;;
70838;SDS011;58464;52.298;4.852;2023-03-01T01:14:25;16.65;;;10.52;;
70838;SDS011;58464;52.298;4.852;2023-03-01T01:16:51;15.82;;;9.48;;
70838;SDS011;58464;52.298;4.852;2023-03-01T01:19:16;15.50;;;10.20;;
70838;SDS011;58464;52.298;4.852;2023-03-01T01:21:41;13.27;;;8.73;;
70838;SDS011;58464;52.298;4.852;2023-03-01T01:24:11;13.63;;;9.13;;
70838;SDS011;58464;52.298;4.852;2023-03-01T01:26:37;13.18;;;8.00;;
70838;SDS011;58464;52.298;4.852;2023-03-01T01:29:03;15.27;;;9.82;;
70838;SDS011;58464;52.298;4.852;2023-03-01T01:31:29;16.35;;;10.07;;
70838;SDS011;58464;52.298;4.852;2023-03-01T01:33:55;15.13;;;9.95;;
70838;SDS011;58464;52.298;4.852;2023-03-01T01:36:20;13.70;;;9.55;;
70838;SDS011;58464;52.298;4.852;2023-03-01T01:38:45;20.58;;;12.43;;
70838;SDS011;58464;52.298;4.852;2023-03-01T01:41:11;19.08;;;11.55;;
70838;SDS011;58464;52.298;4.852;2023-03-01T01:43:38;22.23;;;11.45;;
70838;SDS011;58464;52.298;4.852;2023-03-01T01:48:48;19.33;;;11.18;;
70838;SDS011;58464;52.298;4.852;2023-03-01T01:51:18;16.33;;;10.52;;
70838;SDS011;58464;52.298;4.852;2023-03-01T01:53:44;15.15;;;10.23;;
70838;SDS011;58464;52.298;4.852;2023-03-01T01:56:10;17.38;;;10.95;;
70838;SDS011;58464;52.298;4.852;2023-03-01T01:58:38;22.63;;;13.07;;
70838;SDS011;58464;52.298;4.852;2023-03-01T02:01:04;18.63;;;11.88;;
70838;SDS011;58464;52.298;4.852;2023-03-01T02:03:31;18.85;;;12.32;;
70838;SDS011;58464;52.298;4.852;2023-03-01T02:08:47;19.48;;;11.05;;
70838;SDS011;58464;52.298;4.852;2023-03-01T02:11:13;16.52;;;10.30;;
70838;SDS011;58464;52.298;4.852;2023-03-01T02:13:39;17.42;;;11.70;;
70838;SDS011;58464;52.298;4.852;2023-03-01T02:16:07;20.48;;;12.65;;
70838;SDS011;58464;52.298;4.852;2023-03-01T02:18:33;19.02;;;11.50;;
70838;SDS011;58464;52.298;4.852;2023-03-01T02:21:01;16.67;;;10.17;;
70838;SDS011;58464;52.298;4.852;2023-03-01T02:23:30;18.58;;;12.20;;
70838;SDS011;58464;52.298;4.852;2023-03-01T02:26:01;20.20;;;12.90;;
70838;SDS011;58464;52.298;4.852;2023-03-01T02:28:31;20.33;;;12.55;;
70838;SDS011;58464;52.298;4.852;2023-03-01T02:30:57;16.08;;;11.38;;
70838;SDS011;58464;52.298;4.852;2023-03-01T02:33:40;18.63;;;12.82;;
70838;SDS011;58464;52.298;4.852;2023-03-01T02:36:11;19.10;;;11.55;;
70838;SDS011;58464;52.298;4.852;2023-03-01T02:38:38;21.13;;;10.52;;
70838;SDS011;58464;52.298;4.852;2023-03-01T02:41:03;18.42;;;12.82;;
70838;SDS011;58464;52.298;4.852;2023-03-01T02:43:31;19.27;;;13.23;;
70838;SDS011;58464;52.298;4.852;2023-03-01T02:46:02;19.83;;;12.80;;
70838;SDS011;58464;52.298;4.852;2023-03-01T02:48:39;22.35;;;12.75;;
70838;SDS011;58464;52.298;4.852;2023-03-01T02:51:17;20.05;;;12.45;;
70838;SDS011;58464;52.298;4.852;2023-03-01T02:56:16;17.90;;;12.90;;
70838;SDS011;58464;52.298;4.852;2023-03-01T02:58:41;20.10;;;13.10;;
70838;SDS011;58464;52.298;4.852;2023-03-01T03:01:10;18.67;;;12.60;;
70838;SDS011;58464;52.298;4.852;2023-03-01T03:03:35;22.77;;;12.57;;
70838;SDS011;58464;52.298;4.852;2023-03-01T03:06:00;18.63;;;11.10;;
70838;SDS011;58464;52.298;4.852;2023-03-01T03:08:25;20.03;;;13.23;;
70838;SDS011;58464;52.298;4.852;2023-03-01T03:10:51;19.90;;;12.73;;
70838;SDS011;58464;52.298;4.852;2023-03-01T03:13:16;20.00;;;12.18;;
70838;SDS011;58464;52.298;4.852;2023-03-01T03:15:42;23.58;;;13.23;;
70838;SDS011;58464;52.298;4.852;2023-03-01T03:18:09;23.30;;;13.98;;
70838;SDS011;58464;52.298;4.852;2023-03-01T03:20:35;20.50;;;13.07;;
70838;SDS011;58464;52.298;4.852;2023-03-01T03:23:01;19.65;;;12.60;;
70838;SDS011;58464;52.298;4.852;2023-03-01T03:25:27;18.30;;;13.32;;
70838;SDS011;58464;52.298;4.852;2023-03-01T03:27:53;19.92;;;13.63;;
70838;SDS011;58464;52.298;4.852;2023-03-01T03:30:28;24.85;;;13.80;;
70838;SDS011;58464;52.298;4.852;2023-03-01T03:32:53;20.50;;;13.50;;
70838;SDS011;58464;52.298;4.852;2023-03-01T03:35:20;20.00;;;13.75;;
70838;SDS011;58464;52.298;4.852;2023-03-01T03:37:45;24.33;;;13.75;;
70838;SDS011;58464;52.298;4.852;2023-03-01T03:40:35;23.42;;;13.55;;
70838;SDS011;58464;52.298;4.852;2023-03-01T03:43:02;25.38;;;13.00;;
70838;SDS011;58464;52.298;4.852;2023-03-01T03:45:27;22.83;;;13.25;;
70838;SDS011;58464;52.298;4.852;2023-03-01T03:47:52;19.60;;;12.77;;
70838;SDS011;58464;52.298;4.852;2023-03-01T03:50:18;20.50;;;10.55;;
70838;SDS011;58464;52.298;4.852;2023-03-01T03:52:43;17.08;;;11.73;;
70838;SDS011;58464;52.298;4.852;2023-03-01T03:55:09;17.30;;;11.75;;
70838;SDS011;58464;52.298;4.852;2023-03-01T03:57:35;18.38;;;12.40;;
70838;SDS011;58464;52.298;4.852;2023-03-01T04:00:01;20.35;;;13.10;;
70838;SDS011;58464;52.298;4.852;2023-03-01T04:02:29;24.05;;;12.18;;
70838;SDS011;58464;52.298;4.852;2023-03-01T04:04:54;23.43;;;12.80;;
70838;SDS011;58464;52.298;4.852;2023-03-01T04:07:20;18.53;;;13.07;;
70838;SDS011;58464;52.298;4.852;2023-03-01T04:09:45;18.60;;;12.60;;
70838;SDS011;58464;52.298;4.852;2023-03-01T04:12:10;16.93;;;11.93;;
70838;SDS011;58464;52.298;4.852;2023-03-01T04:14:35;20.20;;;12.90;;
70838;SDS011;58464;52.298;4.852;2023-03-01T04:17:01;25.55;;;12.73;;
70838;SDS011;58464;52.298;4.852;2023-03-01T04:19:26;21.45;;;13.18;;
70838;SDS011;58464;52.298;4.852;2023-03-01T04:21:52;19.15;;;12.82;;
70838;SDS011;58464;52.298;4.852;2023-03-01T04:24:17;16.58;;;11.35;;
70838;SDS011;58464;52.298;4.852;2023-03-01T04:26:42;19.50;;;9.47;;
70838;SDS011;58464;52.298;4.852;2023-03-01T04:29:08;17.00;;;11.07;;
70838;SDS011;58464;52.298;4.852;2023-03-01T04:31:33;17.63;;;11.77;;
70838;SDS011;58464;52.298;4.852;2023-03-01T04:33:59;25.58;;;12.48;;
70838;SDS011;58464;52.298;4.852;2023-03-01T04:36:25;21.35;;;12.00;;
70838;SDS011;58464;52.298;4.852;2023-03-01T04:38:51;19.67;;;12.05;;
70838;SDS011;58464;52.298;4.852;2023-03-01T04:41:18;19.33;;;12.70;;
70838;SDS011;58464;52.298;4.852;2023-03-01T04:43:44;18.58;;;13.10;;
70838;SDS011;58464;52.298;4.852;2023-03-01T04:46:11;20.10;;;12.75;;
70838;SDS011;58464;52.298;4.852;2023-03-01T04:48:36;21.67;;;12.73;;
70838;SDS011;58464;52.298;4.852;2023-03-01T04:51:02;21.77;;;12.20;;
70838;SDS011;58464;52.298;4.852;2023-03-01T04:53:27;16.45;;;12.02;;
70838;SDS011;58464;52.298;4.852;2023-03-01T04:55:56;22.90;;;12.13;;
70838;SDS011;58464;52.298;4.852;2023-03-01T04:58:25;16.90;;;12.07;;
70838;SDS011;58464;52.298;4.852;2023-03-01T05:00:51;20.85;;;12.60;;
70838;SDS011;58464;52.298;4.852;2023-03-01T05:03:16;18.02;;;13.20;;
70838;SDS011;58464;52.298;4.852;2023-03-01T05:05:45;22.08;;;13.65;;
70838;SDS011;58464;52.298;4.852;2023-03-01T05:08:11;20.75;;;13.07;;
70838;SDS011;58464;52.298;4.852;2023-03-01T05:10:49;21.50;;;13.40;;
70838;SDS011;58464;52.298;4.852;2023-03-01T05:13:15;19.63;;;13.15;;
70838;SDS011;58464;52.298;4.852;2023-03-01T05:15:46;21.23;;;13.63;;
70838;SDS011;58464;52.298;4.852;2023-03-01T05:18:11;20.80;;;13.95;;
70838;SDS011;58464;52.298;4.852;2023-03-01T05:20:37;22.30;;;13.73;;
70838;SDS011;58464;52.298;4.852;2023-03-01T05:23:03;23.85;;;14.13;;
70838;SDS011;58464;52.298;4.852;2023-03-01T05:25:30;20.88;;;14.07;;
70838;SDS011;58464;52.298;4.852;2023-03-01T05:27:58;29.52;;;15.13;;
70838;SDS011;58464;52.298;4.852;2023-03-01T05:30:23;25.55;;;14.35;;
70838;SDS011;58464;52.298;4.852;2023-03-01T05:32:49;20.20;;;13.50;;
70838;SDS011;58464;52.298;4.852;2023-03-01T05:35:15;29.05;;;15.93;;
70838;SDS011;58464;52.298;4.852;2023-03-01T05:37:41;22.95;;;15.38;;
70838;SDS011;58464;52.298;4.852;2023-03-01T05:40:07;23.45;;;14.40;;
70838;SDS011;58464;52.298;4.852;2023-03-01T05:42:40;19.95;;;15.07;;
70838;SDS011;58464;52.298;4.852;2023-03-01T05:45:05;22.08;;;14.15;;
70838;SDS011;58464;52.298;4.852;2023-03-01T05:47:34;21.52;;;15.77;;
70838;SDS011;58464;52.298;4.852;2023-03-01T05:50:00;21.85;;;14.55;;
70838;SDS011;58464;52.298;4.852;2023-03-01T05:52:25;28.07;;;13.97;;
70838;SDS011;58464;52.298;4.852;2023-03-01T05:54:50;24.57;;;14.43;;
70838;SDS011;58464;52.298;4.852;2023-03-01T05:57:16;22.43;;;14.53;;
70838;SDS011;58464;52.298;4.852;2023-03-01T05:59:41;28.75;;;14.25;;
70838;SDS011;58464;52.298;4.852;2023-03-01T06:02:06;21.08;;;14.05;;
70838;SDS011;58464;52.298;4.852;2023-03-01T06:04:31;21.70;;;14.23;;
70838;SDS011;58464;52.298;4.852;2023-03-01T06:06:56;22.00;;;14.30;;
70838;SDS011;58464;52.298;4.852;2023-03-01T06:09:22;23.60;;;14.47;;
70838;SDS011;58464;52.298;4.852;2023-03-01T06:11:47;22.80;;;15.45;;
70838;SDS011;58464;52.298;4.852;2023-03-01T06:14:12;25.97;;;15.37;;
70838;SDS011;58464;52.298;4.852;2023-03-01T06:16:39;23.23;;;14.65;;
70838;SDS011;58464;52.298;4.852;2023-03-01T06:19:04;23.60;;;15.60;;
70838;SDS011;58464;52.298;4.852;2023-03-01T06:21:31;26.60;;;16.52;;
70838;SDS011;58464;52.298;4.852;2023-03-01T06:23:56;27.20;;;16.00;;
70838;SDS011;58464;52.298;4.852;2023-03-01T06:26:21;27.63;;;17.10;;
70838;SDS011;58464;52.298;4.852;2023-03-01T06:28:47;27.27;;;16.02;;
70838;SDS011;58464;52.298;4.852;2023-03-01T06:31:12;26.38;;;16.13;;
70838;SDS011;58464;52.298;4.852;2023-03-01T06:33:37;27.02;;;16.40;;
70838;SDS011;58464;52.298;4.852;2023-03-01T06:36:02;34.37;;;16.23;;
70838;SDS011;58464;52.298;4.852;2023-03-01T06:38:28;29.55;;;15.30;;
70838;SDS011;58464;52.298;4.852;2023-03-01T06:40:53;23.97;;;14.90;;
70838;SDS011;58464;52.298;4.852;2023-03-01T06:43:19;24.25;;;14.90;;
70838;SDS011;58464;52.298;4.852;2023-03-01T06:45:45;24.67;;;15.32;;
70838;SDS011;58464;52.298;4.852;2023-03-01T06:48:11;30.13;;;14.80;;
70838;SDS011;58464;52.298;4.852;2023-03-01T06:50:37;24.53;;;14.00;;
70838;SDS011;58464;52.298;4.852;2023-03-01T06:53:02;18.63;;;11.95;;
70838;SDS011;58464;52.298;4.852;2023-03-01T06:55:27;25.63;;;12.63;;
70838;SDS011;58464;52.298;4.852;2023-03-01T06:57:56;35.03;;;14.23;;
70838;SDS011;58464;52.298;4.852;2023-03-01T07:00:22;22.52;;;12.88;;
70838;SDS011;58464;52.298;4.852;2023-03-01T07:02:47;35.33;;;12.55;;
70838;SDS011;58464;52.298;4.852;2023-03-01T07:05:12;64.32;;;11.90;;
70838;SDS011;58464;52.298;4.852;2023-03-01T07:07:37;43.90;;;10.63;;
70838;SDS011;58464;52.298;4.852;2023-03-01T07:10:03;63.33;;;12.20;;
70838;SDS011;58464;52.298;4.852;2023-03-01T07:12:28;160.57;;;14.10;;
70838;SDS011;58464;52.298;4.852;2023-03-01T07:14:54;87.30;;;10.80;;
70838;SDS011;58464;52.298;4.852;2023-03-01T07:17:20;39.78;;;10.65;;
70838;SDS011;58464;52.298;4.852;2023-03-01T07:19:45;38.00;;;9.67;;
70838;SDS011;58464;52.298;4.852;2023-03-01T07:22:10;21.23;;;9.77;;
70838;SDS011;58464;52.298;4.852;2023-03-01T07:24:35;57.72;;;11.23;;
70838;SDS011;58464;52.298;4.852;2023-03-01T07:27:01;79.20;;;11.07;;
70838;SDS011;58464;52.298;4.852;2023-03-01T07:29:26;57.93;;;11.50;;
70838;SDS011;58464;52.298;4.852;2023-03-01T07:31:51;75.63;;;13.07;;
70838;SDS011;58464;52.298;4.852;2023-03-01T07:34:16;39.73;;;11.70;;
70838;SDS011;58464;52.298;4.852;2023-03-01T07:36:41;47.28;;;14.05;;
70838;SDS011;58464;52.298;4.852;2023-03-01T07:39:09;33.83;;;14.10;;
70838;SDS011;58464;52.298;4.852;2023-03-01T07:41:34;30.02;;;15.23;;
70838;SDS011;58464;52.298;4.852;2023-03-01T07:43:59;21.33;;;12.33;;
70838;SDS011;58464;52.298;4.852;2023-03-01T07:46:25;22.23;;;12.95;;
70838;SDS011;58464;52.298;4.852;2023-03-01T07:48:50;22.90;;;12.63;;
70838;SDS011;58464;52.298;4.852;2023-03-01T07:51:15;23.27;;;13.43;;
70838;SDS011;58464;52.298;4.852;2023-03-01T07:53:40;22.65;;;13.10;;
70838;SDS011;58464;52.298;4.852;2023-03-01T07:56:10;22.90;;;12.77;;
70838;SDS011;58464;52.298;4.852;2023-03-01T07:58:36;23.80;;;13.45;;
70838;SDS011;58464;52.298;4.852;2023-03-01T08:01:02;22.98;;;13.82;;
70838;SDS011;58464;52.298;4.852;2023-03-01T08:03:27;25.50;;;13.93;;
70838;SDS011;58464;52.298;4.852;2023-03-01T08:05:53;24.02;;;13.25;;
70838;SDS011;58464;52.298;4.852;2023-03-01T08:08:18;29.03;;;16.17;;
70838;SDS011;58464;52.298;4.852;2023-03-01T08:10:43;29.10;;;17.33;;
70838;SDS011;58464;52.298;4.852;2023-03-01T08:13:08;25.60;;;16.60;;
70838;SDS011;58464;52.298;4.852;2023-03-01T08:15:34;26.25;;;16.50;;
70838;SDS011;58464;52.298;4.852;2023-03-01T08:17:59;26.27;;;15.80;;
70838;SDS011;58464;52.298;4.852;2023-03-01T08:20:25;23.23;;;15.23;;
70838;SDS011;58464;52.298;4.852;2023-03-01T08:22:51;22.77;;;14.23;;
70838;SDS011;58464;52.298;4.852;2023-03-01T08:25:16;22.95;;;15.13;;
70838;SDS011;58464;52.298;4.852;2023-03-01T08:27:41;27.27;;;16.20;;
70838;SDS011;58464;52.298;4.852;2023-03-01T08:30:06;19.93;;;13.30;;
70838;SDS011;58464;52.298;4.852;2023-03-01T08:32:35;22.98;;;14.57;;
70838;SDS011;58464;52.298;4.852;2023-03-01T08:35:01;20.73;;;13.10;;
70838;SDS011;58464;52.298;4.852;2023-03-01T08:37:26;30.20;;;15.60;;
70838;SDS011;58464;52.298;4.852;2023-03-01T08:39:51;25.83;;;15.17;;
70838;SDS011;58464;52.298;4.852;2023-03-01T08:42:16;21.60;;;14.13;;
70838;SDS011;58464;52.298;4.852;2023-03-01T08:44:43;23.13;;;15.17;;
70838;SDS011;58464;52.298;4.852;2023-03-01T08:47:08;26.35;;;15.38;;
70838;SDS011;58464;52.298;4.852;2023-03-01T08:49:33;24.83;;;15.40;;
70838;SDS011;58464;52.298;4.852;2023-03-01T08:51:58;21.70;;;15.10;;
70838;SDS011;58464;52.298;4.852;2023-03-01T08:54:24;21.98;;;12.77;;
70838;SDS011;58464;52.298;4.852;2023-03-01T08:56:49;37.00;;;14.60;;
70838;SDS011;58464;52.298;4.852;2023-03-01T08:59:15;27.80;;;15.50;;
70838;SDS011;58464;52.298;4.852;2023-03-01T09:01:40;25.65;;;13.93;;
70838;SDS011;58464;52.298;4.852;2023-03-01T09:04:08;24.92;;;14.75;;
70838;SDS011;58464;52.298;4.852;2023-03-01T09:06:33;24.55;;;14.77;;
70838;SDS011;58464;52.298;4.852;2023-03-01T09:08:59;25.92;;;15.95;;
70838;SDS011;58464;52.298;4.852;2023-03-01T09:11:25;25.67;;;16.23;;
70838;SDS011;58464;52.298;4.852;2023-03-01T09:13:52;24.05;;;13.88;;
70838;SDS011;58464;52.298;4.852;2023-03-01T09:16:18;21.63;;;14.40;;
70838;SDS011;58464;52.298;4.852;2023-03-01T09:18:44;23.48;;;16.17;;
70838;SDS011;58464;52.298;4.852;2023-03-01T09:21:11;27.25;;;16.48;;
70838;SDS011;58464;52.298;4.852;2023-03-01T09:23:37;30.17;;;16.58;;
70838;SDS011;58464;52.298;4.852;2023-03-01T09:26:07;25.42;;;14.45;;
70838;SDS011;58464;52.298;4.852;2023-03-01T09:28:34;28.15;;;15.10;;
70838;SDS011;58464;52.298;4.852;2023-03-01T09:31:00;27.08;;;15.27;;
70838;SDS011;58464;52.298;4.852;2023-03-01T09:33:25;30.27;;;14.27;;
70838;SDS011;58464;52.298;4.852;2023-03-01T09:35:55;25.88;;;14.77;;
70838;SDS011;58464;52.298;4.852;2023-03-01T09:38:20;19.35;;;10.98;;
70838;SDS011;58464;52.298;4.852;2023-03-01T09:40:46;24.52;;;13.52;;
70838;SDS011;58464;52.298;4.852;2023-03-01T09:45:52;15.65;;;10.27;;
70838;SDS011;58464;52.298;4.852;2023-03-01T09:48:21;12.93;;;8.57;;
70838;SDS011;58464;52.298;4.852;2023-03-01T09:50:48;20.13;;;11.68;;
70838;SDS011;58464;52.298;4.852;2023-03-01T09:53:22;22.02;;;12.60;;
70838;SDS011;58464;52.298;4.852;2023-03-01T09:58:41;20.02;;;13.02;;
70838;SDS011;58464;52.298;4.852;2023-03-01T10:06:26;19.92;;;12.60;;
70838;SDS011;58464;52.298;4.852;2023-03-01T10:09:02;21.02;;;10.88;;
70838;SDS011;58464;52.298;4.852;2023-03-01T10:11:33;11.00;;;6.70;;
70838;SDS011;58464;52.298;4.852;2023-03-01T10:14:15;16.00;;;9.55;;
70838;SDS011;58464;52.298;4.852;2023-03-01T10:19:19;17.35;;;8.60;;
70838;SDS011;58464;52.298;4.852;2023-03-01T10:21:45;12.85;;;7.15;;
70838;SDS011;58464;52.298;4.852;2023-03-01T10:24:15;14.48;;;9.30;;
70838;SDS011;58464;52.298;4.852;2023-03-01T10:26:47;15.52;;;9.50;;
70838;SDS011;58464;52.298;4.852;2023-03-01T10:29:13;13.68;;;7.95;;
70838;SDS011;58464;52.298;4.852;2023-03-01T10:34:18;14.75;;;8.60;;
70838;SDS011;58464;52.298;4.852;2023-03-01T10:36:45;13.32;;;8.45;;
70838;SDS011;58464;52.298;4.852;2023-03-01T10:39:13;12.95;;;9.25;;
70838;SDS011;58464;52.298;4.852;2023-03-01T10:42:45;18.52;;;8.55;;
70838;SDS011;58464;52.298;4.852;2023-03-01T10:44:38;9.55;;;6.43;;
70838;SDS011;58464;52.298;4.852;2023-03-01T10:47:04;13.00;;;8.70;;
70838;SDS011;58464;52.298;4.852;2023-03-01T10:49:29;14.40;;;9.07;;
70838;SDS011;58464;52.298;4.852;2023-03-01T10:51:54;11.40;;;7.28;;
70838;SDS011;58464;52.298;4.852;2023-03-01T10:54:31;13.30;;;9.63;;
70838;SDS011;58464;52.298;4.852;2023-03-01T10:56:57;13.95;;;8.10;;
70838;SDS011;58464;52.298;4.852;2023-03-01T10:59:28;14.55;;;10.10;;
70838;SDS011;58464;52.298;4.852;2023-03-01T11:04:35;12.45;;;9.25;;
70838;SDS011;58464;52.298;4.852;2023-03-01T11:07:01;19.40;;;9.65;;
70838;SDS011;58464;52.298;4.852;2023-03-01T11:09:29;16.00;;;9.35;;
70838;SDS011;58464;52.298;4.852;2023-03-01T11:11:58;15.65;;;9.32;;
70838;SDS011;58464;52.298;4.852;2023-03-01T11:14:25;13.82;;;8.40;;
70838;SDS011;58464;52.298;4.852;2023-03-01T11:19:25;13.63;;;6.88;;
70838;SDS011;58464;52.298;4.852;2023-03-01T11:24:16;13.00;;;8.30;;
70838;SDS011;58464;52.298;4.852;2023-03-01T11:26:44;18.00;;;9.13;;
70838;SDS011;58464;52.298;4.852;2023-03-01T11:29:18;17.00;;;9.05;;
70838;SDS011;58464;52.298;4.852;2023-03-01T11:31:46;14.52;;;8.90;;
70838;SDS011;58464;52.298;4.852;2023-03-01T11:34:14;15.43;;;8.98;;
70838;SDS011;58464;52.298;4.852;2023-03-01T11:41:42;11.88;;;6.50;;
70838;SDS011;58464;52.298;4.852;2023-03-01T11:54:06;16.53;;;9.87;;
70838;SDS011;58464;52.298;4.852;2023-03-01T11:56:42;15.00;;;8.68;;
70838;SDS011;58464;52.298;4.852;2023-03-01T12:10:12;13.10;;;8.65;;
70838;SDS011;58464;52.298;4.852;2023-03-01T12:17:22;16.00;;;9.57;;
70838;SDS011;58464;52.298;4.852;2023-03-01T12:22:38;16.27;;;8.10;;
70838;SDS011;58464;52.298;4.852;2023-03-01T12:25:14;15.80;;;8.93;;
70838;SDS011;58464;52.298;4.852;2023-03-01T12:33:02;20.38;;;9.15;;
70838;SDS011;58464;52.298;4.852;2023-03-01T12:43:26;6.97;;;4.73;;
70838;SDS011;58464;52.298;4.852;2023-03-01T12:46:03;14.20;;;6.82;;
70838;SDS011;58464;52.298;4.852;2023-03-01T12:48:53;13.90;;;7.30;;
70838;SDS011;58464;52.298;4.852;2023-03-01T12:51:23;7.93;;;5.10;;
70838;SDS011;58464;52.298;4.852;2023-03-01T12:53:50;10.52;;;5.95;;
70838;SDS011;58464;52.298;4.852;2023-03-01T12:56:17;12.40;;;5.25;;
70838;SDS011;58464;52.298;4.852;2023-03-01T13:01:41;13.75;;;6.90;;
70838;SDS011;58464;52.298;4.852;2023-03-01T13:14:53;11.55;;;6.95;;
70838;SDS011;58464;52.298;4.852;2023-03-01T13:17:29;10.00;;;6.70;;
70838;SDS011;58464;52.298;4.852;2023-03-01T13:19:56;12.32;;;6.63;;
70838;SDS011;58464;52.298;4.852;2023-03-01T13:22:25;8.63;;;5.07;;
70838;SDS011;58464;52.298;4.852;2023-03-01T13:24:50;11.98;;;5.90;;
70838;SDS011;58464;52.298;4.852;2023-03-01T13:27:25;15.38;;;8.80;;
70838;SDS011;58464;52.298;4.852;2023-03-01T13:29:58;14.10;;;7.78;;
70838;SDS011;58464;52.298;4.852;2023-03-01T13:32:34;12.68;;;7.07;;
70838;SDS011;58464;52.298;4.852;2023-03-01T13:37:32;16.83;;;9.02;;
70838;SDS011;58464;52.298;4.852;2023-03-01T13:39:59;11.75;;;6.95;;
70838;SDS011;58464;52.298;4.852;2023-03-01T13:42:34;10.60;;;5.30;;
70838;SDS011;58464;52.298;4.852;2023-03-01T13:45:00;14.73;;;7.13;;
70838;SDS011;58464;52.298;4.852;2023-03-01T13:47:25;18.52;;;9.07;;
70838;SDS011;58464;52.298;4.852;2023-03-01T13:49:55;18.15;;;10.73;;
70838;SDS011;58464;52.298;4.852;2023-03-01T13:55:03;16.60;;;9.88;;
70838;SDS011;58464;52.298;4.852;2023-03-01T13:57:35;18.58;;;8.57;;
70838;SDS011;58464;52.298;4.852;2023-03-01T14:00:04;18.95;;;9.88;;
70838;SDS011;58464;52.298;4.852;2023-03-01T14:02:30;13.48;;;7.65;;
70838;SDS011;58464;52.298;4.852;2023-03-01T14:04:57;10.60;;;5.57;;
70838;SDS011;58464;52.298;4.852;2023-03-01T14:07:23;10.43;;;5.93;;
70838;SDS011;58464;52.298;4.852;2023-03-01T14:09:58;15.30;;;7.00;;
70838;SDS011;58464;52.298;4.852;2023-03-01T14:15:02;14.88;;;8.07;;
70838;SDS011;58464;52.298;4.852;2023-03-01T14:19:58;13.93;;;7.60;;
70838;SDS011;58464;52.298;4.852;2023-03-01T14:22:25;16.65;;;8.23;;
70838;SDS011;58464;52.298;4.852;2023-03-01T14:24:59;13.60;;;5.97;;
70838;SDS011;58464;52.298;4.852;2023-03-01T14:27:25;11.70;;;5.95;;
70838;SDS011;58464;52.298;4.852;2023-03-01T14:29:58;10.00;;;5.60;;
70838;SDS011;58464;52.298;4.852;2023-03-01T14:32:25;12.85;;;6.30;;
70838;SDS011;58464;52.298;4.852;2023-03-01T14:34:51;13.85;;;5.55;;
70838;SDS011;58464;52.298;4.852;2023-03-01T14:37:18;9.55;;;5.32;;
70838;SDS011;58464;52.298;4.852;2023-03-01T14:39:45;11.45;;;4.68;;
70838;SDS011;58464;52.298;4.852;2023-03-01T14:42:11;12.98;;;6.47;;
70838;SDS011;58464;52.298;4.852;2023-03-01T14:44:37;12.73;;;6.40;;
70838;SDS011;58464;52.298;4.852;2023-03-01T14:47:04;16.88;;;5.78;;
70838;SDS011;58464;52.298;4.852;2023-03-01T14:49:30;10.93;;;5.90;;
70838;SDS011;58464;52.298;4.852;2023-03-01T14:54:27;9.80;;;4.30;;
70838;SDS011;58464;52.298;4.852;2023-03-01T14:56:57;12.10;;;5.45;;
70838;SDS011;58464;52.298;4.852;2023-03-01T14:59:23;9.57;;;5.15;;
70838;SDS011;58464;52.298;4.852;2023-03-01T15:01:49;3.50;;;3.03;;
70838;SDS011;58464;52.298;4.852;2023-03-01T15:04:15;7.97;;;4.00;;
70838;SDS011;58464;52.298;4.852;2023-03-01T15:06:41;5.78;;;3.85;;
70838;SDS011;58464;52.298;4.852;2023-03-01T15:09:06;8.75;;;4.10;;
70838;SDS011;58464;52.298;4.852;2023-03-01T15:11:39;7.00;;;4.60;;
70838;SDS011;58464;52.298;4.852;2023-03-01T15:16:52;6.18;;;2.78;;
70838;SDS011;58464;52.298;4.852;2023-03-01T15:19:18;8.07;;;4.57;;
70838;SDS011;58464;52.298;4.852;2023-03-01T15:21:44;8.73;;;4.15;;
70838;SDS011;58464;52.298;4.852;2023-03-01T15:26:44;7.70;;;3.80;;
70838;SDS011;58464;52.298;4.852;2023-03-01T15:29:15;8.88;;;4.43;;
70838;SDS011;58464;52.298;4.852;2023-03-01T15:31:42;10.02;;;4.63;;
70838;SDS011;58464;52.298;4.852;2023-03-01T15:34:31;10.63;;;4.15;;
70838;SDS011;58464;52.298;4.852;2023-03-01T15:36:55;8.07;;;4.07;;
70838;SDS011;58464;52.298;4.852;2023-03-01T15:42:09;4.28;;;2.83;;
70838;SDS011;58464;52.298;4.852;2023-03-01T15:44:36;5.50;;;3.42;;
70838;SDS011;58464;52.298;4.852;2023-03-01T15:47:04;26.50;;;6.72;;
70838;SDS011;58464;52.298;4.852;2023-03-01T15:49:43;4.93;;;3.20;;
70838;SDS011;58464;52.298;4.852;2023-03-01T15:54:54;7.50;;;4.15;;
70838;SDS011;58464;52.298;4.852;2023-03-01T15:57:20;8.90;;;4.53;;
70838;SDS011;58464;52.298;4.852;2023-03-01T15:59:45;8.32;;;4.43;;
70838;SDS011;58464;52.298;4.852;2023-03-01T16:02:11;6.70;;;3.83;;
70838;SDS011;58464;52.298;4.852;2023-03-01T16:04:37;7.50;;;4.38;;
70838;SDS011;58464;52.298;4.852;2023-03-01T16:07:02;8.45;;;3.25;;
70838;SDS011;58464;52.298;4.852;2023-03-01T16:09:28;7.45;;;4.47;;
70838;SDS011;58464;52.298;4.852;2023-03-01T16:11:53;9.47;;;4.63;;
70838;SDS011;58464;52.298;4.852;2023-03-01T16:14:18;5.37;;;3.67;;
70838;SDS011;58464;52.298;4.852;2023-03-01T16:16:44;9.02;;;4.18;;
70838;SDS011;58464;52.298;4.852;2023-03-01T16:19:09;10.00;;;4.97;;
70838;SDS011;58464;52.298;4.852;2023-03-01T16:21:35;8.23;;;4.75;;
70838;SDS011;58464;52.298;4.852;2023-03-01T16:24:00;9.32;;;5.75;;
70838;SDS011;58464;52.298;4.852;2023-03-01T16:26:26;13.07;;;5.30;;